Terminal Aerodrome Forecast
Issued by NWS

Home | Current Version | Previous Version | Text Only | Print | Product List | Glossary On
Versions: 1 2 3 4 5 6 7 8 9 10 11 12 13 14 15
000
FTUS41 KBTV 271744
TAFRUT
TAF
KRUT 271744Z 2718/2818 13010G20KT P6SM VCSH BKN018
     FM272000 12010G20KT P6SM -SHRA SCT020 BKN028
     FM272300 12011KT P6SM VCSH BKN035
     FM280500 12009KT P6SM BKN022
     FM281400 14010G18KT P6SM SCT025 BKN040
     FM281600 23006KT P6SM SCT100=

USA.gov is the U.S. government's official web portal to all federal, state and local government web resources and services.